createdAt,value
2024-01-07T00:01:31.744Z,1.23
2024-01-07T00:04:00.017Z,1.30
2024-01-07T00:06:28.316Z,1.27
2024-01-07T00:08:57.936Z,1.45
2024-01-07T00:11:26.096Z,1.44
2024-01-07T00:13:54.331Z,1.30
2024-01-07T00:16:22.577Z,1.23
2024-01-07T00:18:50.951Z,1.17
2024-01-07T00:21:19.261Z,1.27
2024-01-07T00:23:47.612Z,1.08
2024-01-07T00:26:17.283Z,1.39
2024-01-07T00:28:45.576Z,1.27
2024-01-07T00:31:14.458Z,1.23
2024-01-07T00:33:42.839Z,1.22
2024-01-07T00:36:11.243Z,1.13
2024-01-07T00:38:40.134Z,1.31
2024-01-07T00:41:08.373Z,1.31
2024-01-07T00:43:37.950Z,1.22
2024-01-07T00:46:06.752Z,1.20
2024-01-07T00:48:35.389Z,1.25
2024-01-07T00:51:03.779Z,1.19
2024-01-07T00:53:31.994Z,1.19
2024-01-07T00:56:00.278Z,1.14
2024-01-07T00:58:28.581Z,1.12
2024-01-07T01:00:58.252Z,1.10
2024-01-07T01:03:26.593Z,1.26
2024-01-07T01:05:55.122Z,1.24
2024-01-07T01:08:24.468Z,1.30
2024-01-07T01:10:52.679Z,1.25
2024-01-07T01:13:20.937Z,1.19
2024-01-07T01:15:49.294Z,1.28
2024-01-07T01:18:19.065Z,1.16
2024-01-07T01:20:47.315Z,1.14
2024-01-07T01:23:15.608Z,1.14
2024-01-07T01:25:43.856Z,1.07
2024-01-07T01:28:12.283Z,1.24
2024-01-07T01:30:41.990Z,1.28
2024-01-07T01:33:10.350Z,1.29
2024-01-07T01:35:40.039Z,1.36
2024-01-07T01:38:08.300Z,1.41
2024-01-07T01:40:36.607Z,1.52
2024-01-07T01:43:04.948Z,1.53
2024-01-07T01:45:33.279Z,1.34
2024-01-07T01:48:02.132Z,1.25
2024-01-07T01:50:30.700Z,1.17
2024-01-07T01:53:00.423Z,1.19
2024-01-07T01:55:28.848Z,1.29
2024-01-07T01:58:01.058Z,1.20
2024-01-07T02:00:29.402Z,1.12
2024-01-07T02:02:57.723Z,1.01
2024-01-07T02:05:26.150Z,0.97
2024-01-07T02:07:54.439Z,0.88
2024-01-07T02:10:24.056Z,0.96
2024-01-07T02:12:52.377Z,0.80
2024-01-07T02:15:21.383Z,0.78
2024-01-07T02:17:49.749Z,0.80
2024-01-07T02:20:18.208Z,0.83
2024-01-07T02:22:46.376Z,0.89
2024-01-07T02:25:18.321Z,1.03
2024-01-07T02:27:46.674Z,1.01
2024-01-07T02:30:15.205Z,0.99
2024-01-07T02:32:43.613Z,1.09
2024-01-07T02:35:11.970Z,1.22
2024-01-07T02:37:40.277Z,1.04
2024-01-07T02:40:10.000Z,1.03
2024-01-07T02:42:39.769Z,1.27
2024-01-07T02:45:08.615Z,1.08
2024-01-07T02:47:36.838Z,1.15
2024-01-07T02:50:05.449Z,1.15
2024-01-07T02:52:33.655Z,1.09
2024-01-07T02:55:02.891Z,1.08
2024-01-07T02:57:31.248Z,1.18
2024-01-07T03:00:01.017Z,1.05
2024-01-07T03:02:29.294Z,1.15
2024-01-07T03:04:57.618Z,0.97
2024-01-07T03:07:25.956Z,0.99
2024-01-07T03:09:54.303Z,0.96
2024-01-07T03:12:22.614Z,1.08
2024-01-07T03:14:50.875Z,1.29
2024-01-07T03:17:20.575Z,1.27
2024-01-07T03:19:48.770Z,1.45
2024-01-07T03:22:17.038Z,1.38
2024-01-07T03:24:45.480Z,1.24
2024-01-07T03:27:13.718Z,1.34
2024-01-07T03:29:42.656Z,1.27
2024-01-07T03:32:10.935Z,1.42
2024-01-07T03:34:41.371Z,1.07
2024-01-07T03:37:09.734Z,1.03
2024-01-07T03:39:38.168Z,1.06
2024-01-07T03:42:12.397Z,1.20
2024-01-07T03:44:40.814Z,1.03
2024-01-07T03:47:09.356Z,0.98
2024-01-07T03:49:40.461Z,0.92
2024-01-07T03:52:09.274Z,0.79
2024-01-07T03:54:37.617Z,0.79
2024-01-07T03:57:06.104Z,0.78
2024-01-07T03:59:34.502Z,0.75
2024-01-07T04:02:03.490Z,0.71
2024-01-07T04:04:32.000Z,0.81
2024-01-07T04:07:01.802Z,0.76
2024-01-07T04:09:30.020Z,0.69
2024-01-07T04:11:58.324Z,0.58
2024-01-07T04:14:28.920Z,0.60
2024-01-07T04:16:57.283Z,0.52
2024-01-07T04:19:25.666Z,0.54
2024-01-07T04:21:54.110Z,0.54
2024-01-07T04:24:23.851Z,0.85
2024-01-07T04:26:51.980Z,0.86
2024-01-07T04:29:20.201Z,0.70
2024-01-07T04:31:48.501Z,0.60
2024-01-07T04:34:16.942Z,0.58
2024-01-07T04:36:45.230Z,0.66
2024-01-07T04:39:13.498Z,0.54
2024-01-07T04:41:43.913Z,0.48
2024-01-07T04:44:12.726Z,0.54
2024-01-07T04:46:41.438Z,0.58
2024-01-07T04:49:08.729Z,0.54
2024-01-07T04:51:37.663Z,0.64
2024-01-07T04:54:07.001Z,0.61
2024-01-07T04:56:35.240Z,0.58
2024-01-07T04:59:06.701Z,0.64
2024-01-07T05:01:35.389Z,0.59
2024-01-07T05:04:04.121Z,0.68
2024-01-07T05:06:32.699Z,0.55
2024-01-07T05:09:00.993Z,0.53
2024-01-07T05:11:29.177Z,0.55
2024-01-07T05:13:57.536Z,0.65
2024-01-07T05:16:27.190Z,0.67
2024-01-07T05:18:55.501Z,0.70
2024-01-07T05:21:23.725Z,0.62
2024-01-07T05:23:51.986Z,0.57
2024-01-07T05:26:20.199Z,0.62
2024-01-07T05:28:48.541Z,0.48
2024-01-07T05:31:17.789Z,0.55
2024-01-07T05:33:48.160Z,0.67
2024-01-07T05:36:17.015Z,0.52
2024-01-07T05:38:45.337Z,0.48
2024-01-07T05:41:13.584Z,0.52
2024-01-07T05:43:42.926Z,0.48
2024-01-07T05:46:12.046Z,0.51
2024-01-07T05:48:50.474Z,0.48
2024-01-07T05:51:19.114Z,0.64
2024-01-07T05:53:47.660Z,0.57
2024-01-07T05:56:15.987Z,0.54
2024-01-07T05:58:44.202Z,0.61
2024-01-07T06:01:12.626Z,0.57
2024-01-07T06:03:41.016Z,0.52
2024-01-07T06:06:10.644Z,0.57
2024-01-07T06:08:39.018Z,0.58
2024-01-07T06:11:08.484Z,0.61
2024-01-07T06:13:37.280Z,0.58
2024-01-07T06:16:05.910Z,0.57
2024-01-07T06:18:36.741Z,0.68
2024-01-07T06:21:06.999Z,0.84
2024-01-07T06:23:36.923Z,0.55
2024-01-07T06:26:05.758Z,0.60
2024-01-07T06:28:34.292Z,0.57
2024-01-07T06:31:05.575Z,0.52
2024-01-07T06:33:35.840Z,0.50
2024-01-07T06:36:05.311Z,0.51
2024-01-07T06:38:33.748Z,0.51
2024-01-07T06:41:05.932Z,0.54
2024-01-07T06:43:34.612Z,0.61
2024-01-07T06:46:03.918Z,0.36
2024-01-07T06:48:33.462Z,0.41
2024-01-07T06:51:02.641Z,0.43
2024-01-07T06:53:32.759Z,0.62
2024-01-07T06:56:01.778Z,0.45
2024-01-07T06:58:33.800Z,0.59
2024-01-07T07:01:03.222Z,0.58
2024-01-07T07:03:32.697Z,0.46
2024-01-07T07:06:01.922Z,0.53
2024-01-07T07:08:30.898Z,0.54
2024-01-07T07:11:00.287Z,0.53
2024-01-07T07:13:29.648Z,0.56
2024-01-07T07:15:59.945Z,0.46
2024-01-07T07:18:29.278Z,0.64
2024-01-07T07:20:58.299Z,0.64
2024-01-07T07:23:28.057Z,0.39
2024-01-07T07:25:58.040Z,0.39
2024-01-07T07:28:27.313Z,0.39
2024-01-07T07:30:56.595Z,0.53
2024-01-07T07:33:28.208Z,0.86
2024-01-07T07:35:56.571Z,0.68
2024-01-07T07:38:25.716Z,0.52
2024-01-07T07:40:54.744Z,0.46
2024-01-07T07:43:23.437Z,0.66
2024-01-07T07:45:52.399Z,0.72
2024-01-07T07:48:21.422Z,0.68
2024-01-07T07:50:52.012Z,0.51
2024-01-07T07:53:20.529Z,0.41
2024-01-07T07:55:49.654Z,0.60
2024-01-07T07:58:18.954Z,0.47
2024-01-07T08:00:48.419Z,0.69
2024-01-07T08:03:17.097Z,0.67
2024-01-07T08:05:45.506Z,0.66
2024-01-07T08:08:15.293Z,0.82
2024-01-07T08:10:46.588Z,0.96
2024-01-07T08:13:15.208Z,0.84
2024-01-07T08:15:44.041Z,0.79
2024-01-07T08:18:12.382Z,0.91
2024-01-07T08:20:41.364Z,1.11
2024-01-07T08:23:10.010Z,1.08
2024-01-07T08:25:39.758Z,0.89
2024-01-07T08:28:08.380Z,0.88
2024-01-07T08:30:36.727Z,0.87
2024-01-07T08:33:05.471Z,0.77
2024-01-07T08:35:33.941Z,0.84
2024-01-07T08:38:04.884Z,0.87
2024-01-07T08:40:33.202Z,0.93
2024-01-07T08:43:03.314Z,1.06
2024-01-07T08:45:31.738Z,0.93
2024-01-07T08:48:00.114Z,0.78
2024-01-07T08:50:28.705Z,0.79
2024-01-07T08:52:57.036Z,1.04
2024-01-07T08:55:25.302Z,1.00
2024-01-07T08:57:53.857Z,0.93
2024-01-07T09:00:27.089Z,0.92
2024-01-07T09:02:55.960Z,1.01
2024-01-07T09:05:25.527Z,1.12
2024-01-07T09:07:55.791Z,0.90
2024-01-07T09:10:26.398Z,1.04
2024-01-07T09:12:55.530Z,1.01
2024-01-07T09:15:26.682Z,1.03
2024-01-07T09:17:55.722Z,0.92
2024-01-07T09:20:24.061Z,0.78
2024-01-07T09:22:53.292Z,1.30
2024-01-07T09:25:22.577Z,1.29
2024-01-07T09:27:51.848Z,1.17
2024-01-07T09:30:21.668Z,0.99
2024-01-07T09:32:52.945Z,1.22
2024-01-07T09:35:21.927Z,1.37
2024-01-07T09:37:50.406Z,0.97
2024-01-07T09:40:20.909Z,1.11
2024-01-07T09:42:50.511Z,1.55
2024-01-07T09:45:21.013Z,1.14
2024-01-07T09:47:49.539Z,1.09
2024-01-07T09:50:19.359Z,0.79
2024-01-07T09:52:48.809Z,0.98
2024-01-07T09:55:24.907Z,0.41
2024-01-07T09:57:53.449Z,0.58
2024-01-07T10:00:22.944Z,0.36
2024-01-07T10:02:51.170Z,0.49
2024-01-07T10:05:20.817Z,0.44
2024-01-07T10:07:50.172Z,0.66
2024-01-07T10:10:19.705Z,0.57
2024-01-07T10:12:48.574Z,0.77
2024-01-07T10:15:17.279Z,0.78
2024-01-07T10:17:46.821Z,0.64
2024-01-07T10:20:15.200Z,0.67
2024-01-07T10:22:49.355Z,0.39
2024-01-07T10:25:17.973Z,0.56
2024-01-07T10:27:46.337Z,0.76
2024-01-07T10:30:15.909Z,0.81
2024-01-07T10:32:45.081Z,0.71
2024-01-07T10:35:17.083Z,0.65
2024-01-07T10:37:47.046Z,0.67
2024-01-07T10:40:15.669Z,0.76
2024-01-07T10:42:46.342Z,0.98
2024-01-07T10:45:16.156Z,0.78
2024-01-07T10:47:47.980Z,0.73
2024-01-07T10:50:17.370Z,0.56
2024-01-07T10:52:51.568Z,0.56
2024-01-07T10:55:22.159Z,0.58
2024-01-07T10:57:51.632Z,0.18
2024-01-07T11:00:23.387Z,0.17
2024-01-07T11:03:02.299Z,0.27
2024-01-07T11:05:34.038Z,0.25
2024-01-07T11:08:09.340Z,0.53
2024-01-07T11:10:49.239Z,0.30
2024-01-07T11:13:37.318Z,0.34
2024-01-07T11:16:06.494Z,0.54
2024-01-07T11:18:41.239Z,0.69
2024-01-07T11:21:09.887Z,0.51
2024-01-07T11:23:47.589Z,0.47
2024-01-07T11:26:16.006Z,0.38
2024-01-07T11:28:52.609Z,0.38
2024-01-07T11:31:21.694Z,0.44
2024-01-07T11:33:51.322Z,0.61
2024-01-07T11:36:20.538Z,0.33
2024-01-07T11:38:54.441Z,0.50
2024-01-07T11:41:24.313Z,0.47
2024-01-07T11:43:57.079Z,0.57
2024-01-07T11:46:25.750Z,0.36
2024-01-07T11:48:59.534Z,0.51
2024-01-07T11:51:28.721Z,0.59
2024-01-07T11:53:58.509Z,0.52
2024-01-07T11:56:27.740Z,0.44
2024-01-07T11:58:57.690Z,0.35
2024-01-07T12:01:27.868Z,0.40
2024-01-07T12:03:57.063Z,0.09
2024-01-07T12:06:26.381Z,0.20
2024-01-07T12:08:54.939Z,0.33
2024-01-07T12:11:24.992Z,0.34
2024-01-07T12:13:53.977Z,-0.02
2024-01-07T12:16:22.528Z,0.06
2024-01-07T12:18:50.867Z,0.11
2024-01-07T12:21:22.217Z,-0.29
2024-01-07T12:23:51.387Z,-0.07
2024-01-07T12:26:20.549Z,-0.09
2024-01-07T12:28:56.496Z,-0.03
2024-01-07T12:31:25.348Z,-0.20
2024-01-07T12:33:54.722Z,-0.40
2024-01-07T12:36:24.043Z,-0.39
2024-01-07T12:38:55.410Z,-0.45
2024-01-07T12:41:24.209Z,-0.50
2024-01-07T12:43:52.671Z,-0.27
2024-01-07T12:46:22.669Z,-0.32
2024-01-07T12:48:51.118Z,-0.67
2024-01-07T12:51:23.384Z,-0.52
2024-01-07T12:53:52.772Z,-0.56
2024-01-07T12:56:21.089Z,-0.36
2024-01-07T12:58:49.369Z,-0.32
2024-01-07T13:01:17.934Z,-0.62
2024-01-07T13:03:47.779Z,-0.71
2024-01-07T13:06:16.290Z,-0.52
2024-01-07T13:08:45.102Z,-0.55
2024-01-07T13:11:15.355Z,-0.69
2024-01-07T13:13:44.126Z,-0.85
2024-01-07T13:16:12.636Z,-0.88
2024-01-07T13:18:41.270Z,-1.01
2024-01-07T13:21:11.145Z,-0.84
2024-01-07T13:23:45.512Z,-0.76
2024-01-07T13:26:13.761Z,-0.81
2024-01-07T13:28:42.552Z,-0.73
2024-01-07T13:31:13.412Z,-0.83
2024-01-07T13:33:42.047Z,-0.85
2024-01-07T13:36:13.791Z,-0.95
2024-01-07T13:38:44.789Z,-1.15
2024-01-07T13:41:15.292Z,-1.03
2024-01-07T13:43:43.950Z,-0.84
2024-01-07T13:46:12.345Z,-0.88
2024-01-07T13:48:43.130Z,-0.93
2024-01-07T13:51:13.428Z,-0.93
2024-01-07T13:53:41.754Z,-0.83
2024-01-07T13:56:10.896Z,-0.75
2024-01-07T13:58:39.253Z,-0.89
2024-01-07T14:01:07.918Z,-0.99
2024-01-07T14:03:36.395Z,-1.04
2024-01-07T14:06:04.904Z,-0.81
2024-01-07T14:08:34.727Z,-0.86
2024-01-07T14:11:04.699Z,-1.02
2024-01-07T14:13:33.683Z,-0.92
2024-01-07T14:16:03.032Z,-0.94
2024-01-07T14:18:31.638Z,-1.16
2024-01-07T14:21:00.345Z,-1.23
2024-01-07T14:23:31.116Z,-1.05
2024-01-07T14:26:01.191Z,-1.18
2024-01-07T14:28:29.502Z,-1.08
2024-01-07T14:30:59.345Z,-0.97
2024-01-07T14:33:28.406Z,-0.83
2024-01-07T14:35:57.817Z,-1.22
2024-01-07T14:38:27.678Z,-1.05
2024-01-07T14:40:57.501Z,-0.80
2024-01-07T14:43:28.084Z,-0.89
2024-01-07T14:45:56.781Z,-1.00
2024-01-07T14:48:25.868Z,-1.37
2024-01-07T14:50:55.549Z,-1.35
2024-01-07T14:53:24.599Z,-0.97
2024-01-07T14:55:53.663Z,-1.14
2024-01-07T14:58:22.507Z,-1.32
2024-01-07T15:00:52.374Z,-1.05
2024-01-07T15:03:21.912Z,-0.95
2024-01-07T15:05:50.281Z,-1.03
2024-01-07T15:08:18.604Z,-0.96
2024-01-07T15:10:46.931Z,-1.31
2024-01-07T15:13:19.341Z,-1.18
2024-01-07T15:15:50.035Z,-1.21
2024-01-07T15:18:20.099Z,-1.20
2024-01-07T15:20:48.400Z,-1.28
2024-01-07T15:23:17.233Z,-1.23
2024-01-07T15:25:46.467Z,-1.55
2024-01-07T15:28:15.757Z,-1.29
2024-01-07T15:30:44.415Z,-1.18
2024-01-07T15:33:13.609Z,-1.32
2024-01-07T15:35:43.939Z,-1.45
2024-01-07T15:38:12.217Z,-1.31
2024-01-07T15:40:40.985Z,-1.36
2024-01-07T15:43:10.280Z,-1.40
2024-01-07T15:45:39.181Z,-1.45
2024-01-07T15:48:08.635Z,-1.48
2024-01-07T15:50:37.602Z,-1.43
2024-01-07T15:53:08.326Z,-1.40
2024-01-07T15:55:37.789Z,-1.41
2024-01-07T15:58:06.061Z,-1.52
2024-01-07T16:00:34.481Z,-1.38
2024-01-07T16:03:07.118Z,-1.36
2024-01-07T16:05:36.924Z,-1.63
2024-01-07T16:08:10.274Z,-1.37
2024-01-07T16:10:39.658Z,-1.63
2024-01-07T16:13:08.503Z,-1.51
2024-01-07T16:15:36.909Z,-1.69
2024-01-07T16:18:05.958Z,-1.61
2024-01-07T16:20:34.741Z,-1.41
2024-01-07T16:23:03.371Z,-1.33
2024-01-07T16:25:33.187Z,-1.19
2024-01-07T16:28:01.759Z,-1.44
2024-01-07T16:30:30.208Z,-1.45
2024-01-07T16:32:58.670Z,-1.49
2024-01-07T16:35:27.444Z,-1.65
2024-01-07T16:37:55.787Z,-1.58
2024-01-07T16:40:25.444Z,-1.64
2024-01-07T16:42:55.806Z,-1.59
2024-01-07T16:45:24.732Z,-1.60
2024-01-07T16:47:53.390Z,-1.67
2024-01-07T16:50:24.829Z,-1.97
2024-01-07T16:52:55.361Z,-1.83
2024-01-07T16:55:24.165Z,-1.73
2024-01-07T16:57:52.450Z,-1.68
2024-01-07T17:00:22.416Z,-1.70
2024-01-07T17:02:51.703Z,-1.97
2024-01-07T17:05:21.020Z,-1.92
2024-01-07T17:07:50.420Z,-1.74
2024-01-07T17:10:18.804Z,-1.73
2024-01-07T17:12:47.170Z,-1.72
2024-01-07T17:15:15.821Z,-1.74
2024-01-07T17:17:48.336Z,-1.80
2024-01-07T17:20:18.318Z,-1.91
2024-01-07T17:22:47.297Z,-1.71
2024-01-07T17:25:15.723Z,-1.70
2024-01-07T17:27:44.154Z,-1.68
2024-01-07T17:30:14.068Z,-1.93
2024-01-07T17:32:42.678Z,-1.81
2024-01-07T17:35:13.636Z,-1.84
2024-01-07T17:37:42.135Z,-1.81
2024-01-07T17:40:12.418Z,-1.85
2024-01-07T17:42:41.285Z,-1.74
2024-01-07T17:45:11.952Z,-1.77
2024-01-07T17:47:42.373Z,-1.95
2024-01-07T17:50:14.417Z,-1.90
2024-01-07T17:52:42.808Z,-1.92
2024-01-07T17:55:11.444Z,-2.16
2024-01-07T17:57:39.658Z,-2.07
2024-01-07T18:00:11.127Z,-2.02
2024-01-07T18:02:40.738Z,-2.24
2024-01-07T18:05:10.176Z,-2.15
2024-01-07T18:07:40.058Z,-2.24
2024-01-07T18:10:12.082Z,-2.04
2024-01-07T18:12:40.965Z,-2.02
2024-01-07T18:15:10.815Z,-2.03
2024-01-07T18:17:43.696Z,-2.11
2024-01-07T18:20:13.269Z,-1.97
2024-01-07T18:22:43.210Z,-2.24
2024-01-07T18:25:14.218Z,-2.18
2024-01-07T18:27:43.920Z,-2.13
2024-01-07T18:30:13.508Z,-2.24
2024-01-07T18:32:43.182Z,-2.38
2024-01-07T18:35:11.988Z,-2.43
2024-01-07T18:37:40.487Z,-2.38
2024-01-07T18:40:11.840Z,-2.24
2024-01-07T18:42:40.351Z,-2.19
2024-01-07T18:45:09.708Z,-2.27
2024-01-07T18:47:40.323Z,-2.42
2024-01-07T18:50:09.783Z,-2.31
2024-01-07T18:52:38.066Z,-2.36
2024-01-07T18:55:09.588Z,-2.33
2024-01-07T18:57:43.693Z,-2.27
2024-01-07T19:00:13.610Z,-2.37
2024-01-07T19:02:42.777Z,-2.44
2024-01-07T19:05:12.179Z,-2.51
2024-01-07T19:07:42.514Z,-2.53
2024-01-07T19:10:12.732Z,-2.49
2024-01-07T19:12:42.533Z,-2.48
2024-01-07T19:15:11.615Z,-2.66
2024-01-07T19:17:42.221Z,-2.75
2024-01-07T19:20:11.346Z,-2.70
2024-01-07T19:22:39.599Z,-2.55
2024-01-07T19:25:09.470Z,-2.78
2024-01-07T19:27:38.845Z,-2.55
2024-01-07T19:30:12.287Z,-2.60
2024-01-07T19:32:42.055Z,-2.77
2024-01-07T19:35:10.942Z,-2.70
2024-01-07T19:37:39.384Z,-2.92
2024-01-07T19:40:09.471Z,-2.86
2024-01-07T19:42:47.101Z,-2.70
2024-01-07T19:45:17.966Z,-2.75
2024-01-07T19:47:47.695Z,-2.92
2024-01-07T19:50:18.797Z,-2.97
2024-01-07T19:52:47.636Z,-2.96
2024-01-07T19:55:16.483Z,-3.09
2024-01-07T19:57:50.438Z,-3.04
2024-01-07T20:00:21.638Z,-3.01
2024-01-07T20:02:51.581Z,-2.90
2024-01-07T20:05:20.624Z,-3.07
2024-01-07T20:07:49.169Z,-2.90
2024-01-07T20:10:17.837Z,-3.10
2024-01-07T20:12:47.257Z,-3.05
2024-01-07T20:15:16.037Z,-2.93
2024-01-07T20:17:46.203Z,-2.98
2024-01-07T20:20:14.712Z,-3.05
2024-01-07T20:22:43.064Z,-2.93
2024-01-07T20:25:13.022Z,-3.11
2024-01-07T20:27:41.808Z,-2.99
2024-01-07T20:30:15.202Z,-3.05
2024-01-07T20:32:45.399Z,-3.12
2024-01-07T20:35:19.123Z,-3.10
2024-01-07T20:37:51.303Z,-3.25
2024-01-07T20:40:22.858Z,-3.03
2024-01-07T20:42:54.046Z,-3.28
2024-01-07T20:45:26.999Z,-3.27
2024-01-07T20:47:58.890Z,-3.57
2024-01-07T20:50:38.931Z,-3.49
2024-01-07T20:53:07.969Z,-3.47
2024-01-07T20:55:37.261Z,-3.54
2024-01-07T20:58:08.618Z,-3.57
2024-01-07T21:00:37.588Z,-3.58
2024-01-07T21:03:07.798Z,-3.45
2024-01-07T21:05:38.361Z,-3.48
2024-01-07T21:08:14.694Z,-3.63
2024-01-07T21:10:46.642Z,-3.58
2024-01-07T21:13:16.455Z,-3.50
2024-01-07T21:15:44.794Z,-3.53
2024-01-07T21:18:15.858Z,-3.62
2024-01-07T21:20:49.378Z,-3.59
2024-01-07T21:23:19.372Z,-3.55
2024-01-07T21:25:48.031Z,-3.83
2024-01-07T21:28:16.381Z,-3.64
2024-01-07T21:30:45.837Z,-3.86
2024-01-07T21:33:15.896Z,-3.60
2024-01-07T21:35:44.339Z,-3.61
2024-01-07T21:38:12.643Z,-3.67
2024-01-07T21:40:40.970Z,-3.45
2024-01-07T21:43:09.515Z,-3.49
2024-01-07T21:45:37.809Z,-3.45
2024-01-07T21:48:06.737Z,-3.68
2024-01-07T21:50:36.530Z,-3.71
2024-01-07T21:53:05.175Z,-3.64
2024-01-07T21:55:34.603Z,-3.58
2024-01-07T21:58:02.947Z,-3.69
2024-01-07T22:00:31.325Z,-3.57
2024-01-07T22:03:00.366Z,-3.78
2024-01-07T22:05:29.367Z,-3.77
2024-01-07T22:07:59.121Z,-3.78
2024-01-07T22:10:27.382Z,-3.80
2024-01-07T22:12:55.621Z,-3.82
2024-01-07T22:15:23.971Z,-3.62
2024-01-07T22:17:52.348Z,-3.66
2024-01-07T22:20:20.649Z,-3.62
2024-01-07T22:22:49.310Z,-3.76
2024-01-07T22:25:19.278Z,-3.61
2024-01-07T22:27:47.897Z,-3.57
2024-01-07T22:30:16.739Z,-3.70
2024-01-07T22:32:46.505Z,-3.67
2024-01-07T22:35:15.066Z,-3.68
2024-01-07T22:37:43.382Z,-3.67
2024-01-07T22:40:12.036Z,-3.99
2024-01-07T22:42:41.658Z,-4.07
2024-01-07T22:45:11.056Z,-4.17
2024-01-07T22:47:39.660Z,-4.44
2024-01-07T22:50:09.206Z,-4.12
2024-01-07T22:52:37.686Z,-4.05
2024-01-07T22:55:06.458Z,-4.05
2024-01-07T22:57:34.765Z,-4.20
2024-01-07T23:00:06.588Z,-4.00
2024-01-07T23:02:34.910Z,-4.09
2024-01-07T23:05:04.230Z,-3.99
2024-01-07T23:07:32.578Z,-4.10
2024-01-07T23:10:00.780Z,-4.21
2024-01-07T23:12:29.436Z,-4.21
2024-01-07T23:14:57.705Z,-4.03
2024-01-07T23:17:27.476Z,-3.92
2024-01-07T23:19:55.925Z,-3.97
2024-01-07T23:22:25.254Z,-4.01
2024-01-07T23:24:54.710Z,-3.99
2024-01-07T23:27:22.948Z,-4.11
2024-01-07T23:29:51.112Z,-3.94
2024-01-07T23:32:19.417Z,-3.94
2024-01-07T23:34:49.093Z,-4.09
2024-01-07T23:37:17.563Z,-4.06
2024-01-07T23:39:45.976Z,-4.08
2024-01-07T23:42:14.257Z,-3.98
2024-01-07T23:44:42.477Z,-4.06
2024-01-07T23:47:10.758Z,-4.10
2024-01-07T23:49:39.037Z,-4.03
2024-01-07T23:52:08.953Z,-4.19
2024-01-07T23:54:37.312Z,-4.29
2024-01-07T23:57:05.693Z,-4.25
2024-01-07T23:59:34.208Z,-4.22
